Time;durP1;ratioP1;P1;durP2;ratioP2;P2;SDS_P1;SDS_P2;PMS_P1;PMS_P2;Temp;Humidity;BMP_temperature;BMP_pressure;BME280_temperature;BME280_humidity;BME280_pressure;Samples;Min_cycle;Max_cycle;Signal;HPM_P1;HPM_P2
2022/11/22 00:00:14;;;;;;;8.10;1.67;;;6.80;99.90;;;;;;5053695;28;20040;-55
2022/11/22 00:02:39;;;;;;;10.00;1.67;;;6.80;99.90;;;;;;5053696;28;20482;-56
2022/11/22 00:05:05;;;;;;;4.47;1.20;;;6.80;99.90;;;;;;5053470;28;20036;-54
2022/11/22 00:07:31;;;;;;;2.03;1.13;;;6.80;99.90;;;;;;5051121;28;20036;-55
2022/11/22 00:09:56;;;;;;;4.27;1.27;;;6.80;99.90;;;;;;5051508;28;20032;-55
2022/11/22 00:12:22;;;;;;;6.80;1.57;;;6.80;99.90;;;;;;5051960;28;20037;-56
2022/11/22 00:14:48;;;;;;;5.80;1.60;;;6.80;99.90;;;;;;5053533;28;20404;-56
2022/11/22 00:17:13;;;;;;;2.83;1.20;;;6.80;99.90;;;;;;5052716;28;20036;-56
2022/11/22 00:19:40;;;;;;;5.53;1.20;;;6.70;99.90;;;;;;5052391;28;20025;-55
2022/11/22 00:22:07;;;;;;;7.00;1.57;;;6.70;99.90;;;;;;5053361;28;20417;-55
2022/11/22 00:24:33;;;;;;;3.83;1.17;;;6.70;99.90;;;;;;5053485;28;20094;-55
2022/11/22 00:26:59;;;;;;;7.37;2.50;;;6.70;99.90;;;;;;5052908;28;20124;-57
2022/11/22 00:29:24;;;;;;;10.23;2.30;;;6.70;99.90;;;;;;5051729;28;20132;-56
2022/11/22 00:31:50;;;;;;;7.40;2.03;;;6.60;99.90;;;;;;5053101;28;20091;-54
2022/11/22 00:34:16;;;;;;;6.97;1.83;;;6.60;99.90;;;;;;5053073;28;20040;-56
2022/11/22 00:36:41;;;;;;;6.30;1.70;;;6.60;99.90;;;;;;5052646;28;20037;-55
2022/11/22 00:39:07;;;;;;;6.20;2.00;;;6.60;99.90;;;;;;5052443;28;20033;-56
2022/11/22 00:41:33;;;;;;;6.30;2.23;;;6.50;99.90;;;;;;5053153;28;20028;-55
2022/11/22 00:43:59;;;;;;;7.03;2.03;;;6.60;99.90;;;;;;5052998;28;20512;-55
2022/11/22 00:46:24;;;;;;;8.20;1.83;;;6.50;99.90;;;;;;5052535;28;20036;-56
2022/11/22 00:48:50;;;;;;;7.63;2.10;;;6.50;99.90;;;;;;5052659;28;20064;-56
2022/11/22 00:51:16;;;;;;;5.70;1.93;;;6.50;99.90;;;;;;5052710;28;20040;-55
2022/11/22 00:53:41;;;;;;;6.07;1.73;;;6.50;99.90;;;;;;5052668;28;20262;-57
2022/11/22 00:56:07;;;;;;;7.67;2.20;;;6.50;99.90;;;;;;5052551;28;20033;-54
2022/11/22 00:58:33;;;;;;;9.50;1.80;;;6.50;99.90;;;;;;5052281;28;20025;-54
2022/11/22 01:00:58;;;;;;;2.93;1.10;;;6.50;99.90;;;;;;5052738;28;20029;-54
2022/11/22 01:03:24;;;;;;;4.53;1.50;;;6.50;99.90;;;;;;5052558;28;20393;-56
2022/11/22 01:05:50;;;;;;;9.20;3.03;;;6.50;99.90;;;;;;5052470;28;20048;-55
2022/11/22 01:08:16;;;;;;;8.23;2.03;;;6.50;99.90;;;;;;5052075;28;20036;-56
2022/11/22 01:10:41;;;;;;;3.83;1.73;;;6.50;99.90;;;;;;5052331;28;20143;-55
2022/11/22 01:13:08;;;;;;;7.17;2.00;;;6.50;99.90;;;;;;5052434;28;20478;-54
2022/11/22 01:15:34;;;;;;;8.20;1.70;;;6.50;99.90;;;;;;5052236;28;20112;-56
2022/11/22 01:18:00;;;;;;;7.97;2.20;;;6.50;99.90;;;;;;5051941;28;20481;-55
2022/11/22 01:20:26;;;;;;;7.87;2.30;;;6.50;99.90;;;;;;5052062;28;20106;-54
2022/11/22 01:22:52;;;;;;;10.03;2.10;;;6.50;99.90;;;;;;5052221;28;20041;-56
2022/11/22 01:25:17;;;;;;;6.97;1.90;;;6.50;99.90;;;;;;5052388;28;20068;-55
2022/11/22 01:27:43;;;;;;;5.13;2.23;;;6.60;99.90;;;;;;5051925;28;20041;-57
2022/11/22 01:30:09;;;;;;;9.93;2.77;;;6.50;99.90;;;;;;5050839;28;20028;-56
2022/11/22 01:32:35;;;;;;;8.63;2.47;;;6.50;99.90;;;;;;5052095;28;20056;-56
2022/11/22 01:35:00;;;;;;;8.37;2.10;;;6.60;99.90;;;;;;5051895;28;20178;-56
2022/11/22 01:37:26;;;;;;;8.33;2.07;;;6.60;99.90;;;;;;5051662;28;20032;-57
2022/11/22 01:39:52;;;;;;;9.07;2.57;;;6.60;99.90;;;;;;5051674;28;20021;-55
2022/11/22 01:42:17;;;;;;;8.73;2.00;;;6.60;99.90;;;;;;5052212;28;20619;-56
2022/11/22 01:44:43;;;;;;;8.23;2.10;;;6.60;99.90;;;;;;5051959;28;20436;-55
2022/11/22 01:47:13;;;;;;;7.03;2.27;;;6.70;99.90;;;;;;5051668;28;20035;-54
2022/11/22 01:49:38;;;;;;;;;;;6.70;99.90;;;;;;5051484;28;20029;-56
2022/11/22 01:52:22;;;;;;;7.60;2.30;;;6.70;99.90;;;;;;5051916;28;19913;-56
2022/11/22 01:54:56;;;;;;;6.87;2.10;;;6.70;99.90;;;;;;5051805;28;20033;-55
2022/11/22 01:57:25;;;;;;;8.07;1.90;;;6.70;99.90;;;;;;5051679;28;20050;-54
2022/11/22 01:59:55;;;;;;;;;;;6.70;99.90;;;;;;5052154;28;20120;-57
2022/11/22 02:02:21;;;;;;;8.63;2.20;;;6.70;99.90;;;;;;5051766;28;19908;-55
2022/11/22 02:04:49;;;;;;;5.73;2.17;;;6.70;99.90;;;;;;5051939;28;20044;-56
2022/11/22 02:07:18;;;;;;;7.37;2.93;;;6.70;99.90;;;;;;5051632;28;20065;-54
2022/11/22 02:09:45;;;;;;;;;;;6.80;99.90;;;;;;5051910;28;20029;-54
2022/11/22 02:12:11;;;;;;;9.63;2.47;;;6.80;99.90;;;;;;5051777;28;19955;-54
2022/11/22 02:14:39;;;;;;;6.37;1.90;;;6.90;99.90;;;;;;5051483;28;20040;-55
2022/11/22 02:17:05;;;;;;;14.77;2.50;;;6.90;99.90;;;;;;5051123;28;20044;-57
2022/11/22 02:19:42;;;;;;;8.63;2.07;;;6.80;99.90;;;;;;5051235;28;20025;-56
2022/11/22 02:22:31;;;;;;;7.57;2.30;;;6.90;99.90;;;;;;5051524;28;20033;-53
2022/11/22 02:25:06;;;;;;;8.20;1.92;;;6.90;99.90;;;;;;5044945;28;20041;-56
2022/11/22 02:27:31;;;;;;;8.73;2.17;;;6.90;99.90;;;;;;5051167;28;20025;-58
2022/11/22 02:29:57;;;;;;;10.97;2.33;;;6.90;99.90;;;;;;5051118;28;20371;-53
2022/11/22 02:32:23;;;;;;;7.50;2.23;;;6.90;99.90;;;;;;5051517;28;20466;-56
2022/11/22 02:34:50;;;;;;;10.47;2.03;;;6.90;99.90;;;;;;5051263;28;20141;-52
2022/11/22 02:37:24;;;;;;;7.30;2.47;;;6.90;99.90;;;;;;5050917;28;20071;-54
2022/11/22 02:40:06;;;;;;;7.27;2.43;;;6.90;99.90;;;;;;5050770;28;20116;-57
2022/11/22 02:42:33;;;;;;;7.23;2.30;;;6.80;99.90;;;;;;5051182;28;20029;-57
2022/11/22 02:44:58;;;;;;;9.63;2.40;;;6.90;99.90;;;;;;5051014;28;20025;-56
2022/11/22 02:47:24;;;;;;;9.33;2.40;;;6.90;99.90;;;;;;5050799;28;20025;-56
2022/11/22 02:49:52;;;;;;;9.20;2.30;;;6.90;99.90;;;;;;5050710;28;20111;-54
2022/11/22 02:52:18;;;;;;;10.00;2.90;;;6.90;99.90;;;;;;5050903;28;20049;-55
2022/11/22 02:54:44;;;;;;;11.97;2.83;;;6.90;99.90;;;;;;5050826;28;20460;-55
2022/11/22 02:57:10;;;;;;;9.57;2.23;;;6.90;99.90;;;;;;5050682;28;20025;-56
2022/11/22 02:59:35;;;;;;;6.17;2.10;;;6.90;99.90;;;;;;5050654;28;20032;-55
2022/11/22 03:02:01;;;;;;;9.20;2.20;;;6.90;99.90;;;;;;5050817;28;20076;-56
2022/11/22 03:04:27;;;;;;;9.77;2.20;;;6.80;99.90;;;;;;5050620;28;20021;-56
2022/11/22 03:06:57;;;;;;;7.37;1.80;;;6.80;99.90;;;;;;5050439;28;20029;-56
2022/11/22 03:09:24;;;;;;;10.57;2.20;;;6.80;99.90;;;;;;5050704;28;20036;-57
2022/11/22 03:11:50;;;;;;;7.70;1.90;;;6.70;99.90;;;;;;5050660;28;20036;-56
2022/11/22 03:14:16;;;;;;;10.57;2.00;;;6.70;99.90;;;;;;5050641;28;20025;-56
2022/11/22 03:16:42;;;;;;;5.20;2.23;;;6.70;99.90;;;;;;5050098;28;20537;-56
2022/11/22 03:19:08;;;;;;;12.43;2.60;;;6.70;99.90;;;;;;5050299;28;20507;-56
2022/11/22 03:21:34;;;;;;;9.70;2.40;;;6.60;99.90;;;;;;5050312;28;20116;-57
2022/11/22 03:24:00;;;;;;;10.17;2.77;;;6.60;99.90;;;;;;5050583;28;20032;-56
2022/11/22 03:26:26;;;;;;;8.40;2.00;;;6.60;99.90;;;;;;5050179;28;20396;-56
2022/11/22 03:28:51;;;;;;;8.70;2.23;;;6.60;99.90;;;;;;5050307;28;20033;-55
2022/11/22 03:31:17;;;;;;;7.23;2.23;;;6.60;99.90;;;;;;5050370;28;20478;-56
2022/11/22 03:33:43;;;;;;;11.47;2.33;;;6.50;99.90;;;;;;5050228;28;20037;-57
2022/11/22 03:36:08;;;;;;;11.93;2.23;;;6.50;99.90;;;;;;5050019;28;20064;-53
2022/11/22 03:38:35;;;;;;;14.20;2.47;;;6.50;99.90;;;;;;5049848;28;20486;-53
2022/11/22 03:41:00;;;;;;;7.40;2.30;;;6.40;99.90;;;;;;5050266;28;20406;-53
2022/11/22 03:43:26;;;;;;;10.20;2.37;;;6.40;99.90;;;;;;5050320;28;20029;-56
2022/11/22 03:45:52;;;;;;;11.63;2.40;;;6.40;99.90;;;;;;5050236;28;20033;-53
2022/11/22 03:48:18;;;;;;;10.67;2.37;;;6.30;99.90;;;;;;5049764;28;20445;-53
2022/11/22 03:50:44;;;;;;;13.20;2.20;;;6.30;99.90;;;;;;5049669;28;20044;-57
2022/11/22 03:53:10;;;;;;;12.30;2.27;;;6.30;99.90;;;;;;5050279;28;20044;-57
2022/11/22 03:55:36;;;;;;;13.80;3.03;;;6.30;99.90;;;;;;5049934;28;20037;-55
2022/11/22 03:58:02;;;;;;;8.13;1.83;;;6.30;99.90;;;;;;5049721;28;20029;-55
2022/11/22 04:00:28;;;;;;;11.30;2.30;;;6.30;99.90;;;;;;5049807;28;20025;-54
2022/11/22 04:02:54;;;;;;;10.53;2.20;;;6.20;99.90;;;;;;5049946;28;20088;-56
2022/11/22 04:05:19;;;;;;;8.90;2.40;;;6.20;99.90;;;;;;5049933;28;20118;-55
2022/11/22 04:07:45;;;;;;;8.80;2.10;;;6.20;99.90;;;;;;5049648;28;20091;-53
2022/11/22 04:10:11;;;;;;;11.67;2.83;;;6.20;99.90;;;;;;5049345;28;20075;-54
2022/11/22 04:12:37;;;;;;;12.27;2.63;;;6.20;99.90;;;;;;5049507;28;20506;-55
2022/11/22 04:15:05;;;;;;;7.97;2.77;;;6.20;99.90;;;;;;5053157;28;20043;-57
2022/11/22 04:17:39;;;;;;;8.80;2.42;;;6.10;99.90;;;;;;5052992;28;20025;-53
2022/11/22 04:23:12;;;;;;;11.97;2.43;;;6.00;99.90;;;;;;5053317;28;20048;-51
2022/11/22 04:25:43;;;;;;;8.70;2.33;;;5.90;99.90;;;;;;5053004;28;20041;-52
2022/11/22 04:28:10;;;;;;;11.70;2.77;;;5.80;99.90;;;;;;5052328;28;20037;-55
2022/11/22 04:33:21;;;;;;;8.27;2.17;;;5.70;99.90;;;;;;5046117;28;20299;-55
2022/11/22 04:35:48;;;;;;;11.73;2.77;;;5.70;99.90;;;;;;5043261;28;20060;-57
2022/11/22 04:38:14;;;;;;;10.57;2.57;;;5.70;99.90;;;;;;5051385;28;20036;-55
2022/11/22 04:40:40;;;;;;;14.17;3.40;;;5.60;99.90;;;;;;5051580;28;20031;-54
2022/11/22 04:45:52;;;;;;;8.73;2.83;;;5.50;99.90;;;;;;5051207;28;20064;-54
2022/11/22 04:48:18;;;;;;;11.30;2.60;;;5.60;99.90;;;;;;5051018;28;20057;-55
2022/11/22 04:53:29;;;;;;;11.30;2.73;;;5.50;99.90;;;;;;5051002;28;20045;-54
2022/11/22 04:55:55;;;;;;;11.47;2.70;;;5.50;99.90;;;;;;5049135;28;20032;-54
2022/11/22 04:58:22;;;;;;;13.80;3.03;;;5.50;99.90;;;;;;5050819;28;20033;-55
2022/11/22 05:00:48;;;;;;;11.30;2.80;;;5.50;99.90;;;;;;5050966;28;20029;-52
2022/11/22 05:03:14;;;;;;;16.47;3.27;;;5.50;99.90;;;;;;5050491;28;20083;-52
2022/11/22 05:05:42;;;;;;;13.23;3.40;;;5.50;99.90;;;;;;5050228;28;20482;-55
2022/11/22 05:08:09;;;;;;;9.17;2.67;;;5.40;99.90;;;;;;5050808;28;20037;-53
2022/11/22 05:13:22;;;;;;;13.37;2.83;;;5.40;99.90;;;;;;5051022;28;20029;-56
2022/11/22 05:15:50;;;;;;;11.47;2.83;;;5.40;99.90;;;;;;5050703;28;20041;-56
2022/11/22 05:18:17;;;;;;;11.80;2.77;;;5.40;99.90;;;;;;5049965;28;20611;-56
2022/11/22 05:20:43;;;;;;;20.70;3.47;;;5.40;99.90;;;;;;5049714;28;20025;-55
2022/11/22 05:25:53;;;;;;;16.53;3.20;;;5.40;99.90;;;;;;5049368;28;20127;-55
2022/11/22 05:28:18;;;;;;;12.40;2.50;;;5.40;99.90;;;;;;5050467;28;20052;-56
2022/11/22 05:30:44;;;;;;;16.00;3.00;;;5.40;99.90;;;;;;5049856;28;20032;-50
2022/11/22 05:33:10;;;;;;;13.30;3.20;;;5.40;99.90;;;;;;5050359;28;20040;-52
2022/11/22 05:35:35;;;;;;;14.57;3.00;;;5.40;99.90;;;;;;5049586;28;20541;-53
2022/11/22 05:38:01;;;;;;;14.37;2.80;;;5.40;99.90;;;;;;5050192;28;20063;-55
2022/11/22 05:40:27;;;;;;;13.50;2.87;;;5.40;99.90;;;;;;5050044;28;20025;-49
2022/11/22 05:42:52;;;;;;;14.13;2.73;;;5.40;99.90;;;;;;5050206;28;20465;-57
2022/11/22 05:45:19;;;;;;;13.57;2.50;;;5.40;99.90;;;;;;5050235;28;20029;-57
2022/11/22 05:47:45;;;;;;;16.03;3.00;;;5.40;99.90;;;;;;5049534;28;20029;-58
2022/11/22 05:50:11;;;;;;;13.80;2.70;;;5.30;99.90;;;;;;5049377;28;20068;-58
2022/11/22 05:52:37;;;;;;;17.73;2.80;;;5.30;99.90;;;;;;5050220;28;20035;-56
2022/11/22 05:55:03;;;;;;;11.07;2.33;;;5.30;99.90;;;;;;5048701;28;20044;-59
2022/11/22 05:57:31;;;;;;;13.47;3.03;;;5.30;99.90;;;;;;5049892;28;20060;-57
2022/11/22 05:59:57;;;;;;;17.40;4.83;;;5.20;99.90;;;;;;5049655;28;20378;-55
2022/11/22 06:02:23;;;;;;;19.77;7.47;;;5.20;99.90;;;;;;5050387;28;20082;-52
2022/11/22 06:04:49;;;;;;;19.00;8.27;;;5.20;99.90;;;;;;5048963;28;20674;-57
2022/11/22 06:07:15;;;;;;;17.37;6.20;;;5.10;99.90;;;;;;5050248;28;20252;-56
2022/11/22 06:09:40;;;;;;;21.93;4.93;;;5.20;99.90;;;;;;5049683;28;20033;-56
2022/11/22 06:12:06;;;;;;;21.73;4.37;;;5.20;99.90;;;;;;5050181;28;20112;-57
2022/11/22 06:14:32;;;;;;;12.80;2.80;;;5.20;99.90;;;;;;5049625;28;20056;-56
2022/11/22 06:16:58;;;;;;;19.90;3.67;;;5.20;99.90;;;;;;5049537;28;20044;-57
2022/11/22 06:19:24;;;;;;;18.40;2.70;;;5.20;99.90;;;;;;5048381;28;20029;-52
2022/11/22 06:21:49;;;;;;;12.23;3.03;;;5.20;99.90;;;;;;5049452;28;20051;-59
2022/11/22 06:24:15;;;;;;;12.60;3.03;;;5.20;99.90;;;;;;5049166;28;20370;-53
2022/11/22 06:26:41;;;;;;;17.70;3.17;;;5.30;99.90;;;;;;5049490;28;20430;-53
2022/11/22 06:29:06;;;;;;;11.77;3.13;;;5.30;99.90;;;;;;5047789;28;20252;-57
2022/11/22 06:31:32;;;;;;;17.93;3.97;;;5.30;99.90;;;;;;5047543;28;20083;-56
2022/11/22 06:33:59;;;;;;;15.43;3.30;;;5.30;99.90;;;;;;5047128;28;20072;-55
2022/11/22 06:36:32;;;;;;;10.00;3.10;;;5.30;99.90;;;;;;5046241;28;20025;-54
2022/11/22 06:38:58;;;;;;;16.37;3.87;;;5.40;99.90;;;;;;5047408;28;20119;-54
2022/11/22 06:41:26;;;;;;;12.00;3.90;;;5.30;99.90;;;;;;5047531;28;20205;-55
2022/11/22 06:43:54;;;;;;;18.70;4.10;;;5.40;99.90;;;;;;5046642;28;20072;-55
2022/11/22 06:46:22;;;;;;;17.38;3.22;;;5.40;99.90;;;;;;5049113;28;20021;-50
2022/11/22 06:48:48;;;;;;;15.70;2.87;;;5.40;99.90;;;;;;5048723;28;20025;-57
2022/11/22 06:51:16;;;;;;;17.00;3.23;;;5.40;99.90;;;;;;5048205;28;20486;-51
2022/11/22 06:53:42;;;;;;;16.00;3.23;;;5.40;99.90;;;;;;5049187;28;20071;-51
2022/11/22 06:56:12;;;;;;;16.20;3.30;;;5.30;99.90;;;;;;5048603;28;20115;-51
2022/11/22 06:58:38;;;;;;;14.70;3.23;;;5.30;99.90;;;;;;5048386;28;20207;-52
2022/11/22 07:01:05;;;;;;;9.50;2.30;;;5.30;99.90;;;;;;5048492;28;20053;-51
2022/11/22 07:03:33;;;;;;;13.23;2.90;;;5.30;99.90;;;;;;5048852;28;20055;-53
2022/11/22 07:05:59;;;;;;;12.77;2.70;;;5.30;99.90;;;;;;5048495;28;20037;-52
2022/11/22 07:08:25;;;;;;;18.13;3.43;;;5.30;99.90;;;;;;5048895;28;20104;-51
2022/11/22 07:10:50;;;;;;;8.53;1.77;;;5.30;99.90;;;;;;5048929;28;20450;-52
2022/11/22 07:13:16;;;;;;;22.27;3.33;;;5.30;99.90;;;;;;5049423;28;20036;-53
2022/11/22 07:15:42;;;;;;;11.77;2.77;;;5.30;99.90;;;;;;5049421;28;20033;-54
2022/11/22 07:18:07;;;;;;;15.67;2.40;;;5.30;99.90;;;;;;5048652;28;20056;-53
2022/11/22 07:20:33;;;;;;;10.20;2.13;;;5.30;99.90;;;;;;5048264;28;20021;-52
2022/11/22 07:22:59;;;;;;;13.13;2.17;;;5.20;99.90;;;;;;5049034;28;20040;-53
2022/11/22 07:25:25;;;;;;;16.13;2.93;;;5.30;99.90;;;;;;5049104;28;20037;-53
2022/11/22 07:27:53;;;;;;;9.20;2.30;;;5.20;99.90;;;;;;5048960;28;20108;-55
2022/11/22 07:30:19;;;;;;;17.70;2.73;;;5.30;99.90;;;;;;5048724;28;20087;-55
2022/11/22 07:32:48;;;;;;;9.63;2.67;;;5.20;99.90;;;;;;5048650;28;20033;-55
2022/11/22 07:35:13;;;;;;;14.55;3.35;;;5.30;99.90;;;;;;5048058;28;20106;-52
2022/11/22 07:37:39;;;;;;;17.73;2.83;;;5.30;99.90;;;;;;5048718;28;20029;-56
2022/11/22 07:40:05;;;;;;;13.70;1.97;;;5.30;99.90;;;;;;5048597;28;20025;-55
2022/11/22 07:42:31;;;;;;;16.20;2.30;;;5.30;99.90;;;;;;5047445;28;20449;-55
2022/11/22 07:44:57;;;;;;;14.30;2.60;;;5.30;99.90;;;;;;5047904;28;20136;-57
2022/11/22 07:47:23;;;;;;;11.63;2.43;;;5.50;99.90;;;;;;5047756;28;20068;-51
2022/11/22 07:49:48;;;;;;;15.23;2.60;;;5.60;99.90;;;;;;5050537;28;20033;-50
2022/11/22 07:52:14;;;;;;;13.77;3.20;;;5.60;99.90;;;;;;5051897;28;20408;-51
2022/11/22 07:54:40;;;;;;;13.93;2.63;;;5.60;99.90;;;;;;5051919;28;20025;-58
2022/11/22 07:57:05;;;;;;;11.97;2.27;;;5.60;99.90;;;;;;5051535;28;20052;-59
2022/11/22 07:59:31;;;;;;;13.47;2.70;;;5.70;99.90;;;;;;5051011;28;20025;-60
2022/11/22 08:01:57;;;;;;;15.07;3.00;;;5.70;99.90;;;;;;5051847;28;20029;-52
2022/11/22 08:04:22;;;;;;;11.47;2.23;;;5.80;99.90;;;;;;5050695;28;20057;-54
2022/11/22 08:06:48;;;;;;;12.20;2.20;;;5.90;99.90;;;;;;5051187;28;20025;-53
2022/11/22 08:09:14;;;;;;;14.60;2.07;;;5.90;99.90;;;;;;5051606;28;20069;-51
2022/11/22 08:11:39;;;;;;;11.23;2.00;;;5.90;99.90;;;;;;5051989;28;20049;-50
2022/11/22 08:14:05;;;;;;;9.77;2.27;;;6.00;99.90;;;;;;5051672;28;20029;-56
2022/11/22 08:16:31;;;;;;;12.13;2.53;;;6.00;99.90;;;;;;5051144;28;20113;-58
2022/11/22 08:18:57;;;;;;;11.87;2.40;;;6.10;99.90;;;;;;5049760;28;20048;-58
2022/11/22 08:21:22;;;;;;;13.20;2.97;;;6.10;99.90;;;;;;5050826;28;20498;-58
2022/11/22 08:23:48;;;;;;;10.43;2.20;;;6.10;99.90;;;;;;5051662;28;20032;-58
2022/11/22 08:26:16;;;;;;;6.93;2.30;;;6.20;99.90;;;;;;5051339;28;20029;-58
2022/11/22 08:28:42;;;;;;;15.90;2.50;;;6.20;99.90;;;;;;5051137;28;20033;-57
2022/11/22 08:31:12;;;;;;;11.03;2.67;;;6.30;99.90;;;;;;5051365;28;20101;-55
2022/11/22 08:33:38;;;;;;;8.90;1.87;;;6.30;99.90;;;;;;5051215;28;20553;-52
2022/11/22 08:36:04;;;;;;;11.00;2.00;;;6.40;99.90;;;;;;5050626;28;20112;-54
2022/11/22 08:38:30;;;;;;;14.50;1.90;;;6.50;99.90;;;;;;5050807;28;20036;-56
2022/11/22 08:40:56;;;;;;;11.67;2.27;;;6.50;99.90;;;;;;5050556;28;20037;-56
2022/11/22 08:43:22;;;;;;;12.27;2.07;;;6.60;99.90;;;;;;5049525;28;20116;-55
2022/11/22 08:45:52;;;;;;;6.77;1.70;;;6.70;99.90;;;;;;5049558;28;20117;-54
2022/11/22 08:48:18;;;;;;;8.23;1.87;;;6.70;99.90;;;;;;5050356;28;20029;-52
2022/11/22 08:50:55;;;;;;;11.03;2.53;;;6.80;99.90;;;;;;5049502;28;20032;-55
2022/11/22 08:53:22;;;;;;;13.33;1.90;;;7.00;99.90;;;;;;5050587;28;20056;-53
2022/11/22 08:55:48;;;;;;;13.17;2.57;;;7.10;99.90;;;;;;5050751;28;20065;-55
2022/11/22 08:58:14;;;;;;;9.03;1.63;;;7.30;99.90;;;;;;5050546;28;20439;-52
2022/11/22 09:00:40;;;;;;;10.50;1.93;;;7.50;99.90;;;;;;5050239;28;20021;-56
2022/11/22 09:03:05;;;;;;;9.10;1.70;;;7.50;99.90;;;;;;5050302;28;20648;-55
2022/11/22 09:05:31;;;;;;;9.23;1.33;;;7.60;99.90;;;;;;5050099;28;20037;-48
2022/11/22 09:07:57;;;;;;;11.83;2.40;;;7.50;99.90;;;;;;5050526;28;20477;-52
2022/11/22 09:10:23;;;;;;;10.53;1.87;;;7.60;99.90;;;;;;5050457;28;20037;-52
2022/11/22 09:12:49;;;;;;;10.23;1.90;;;7.70;99.90;;;;;;5051098;28;20444;-51
2022/11/22 09:15:15;;;;;;;12.50;2.27;;;7.80;99.90;;;;;;5050614;28;20029;-51
2022/11/22 09:17:42;;;;;;;10.77;2.90;;;8.00;99.90;;;;;;5049338;28;20128;-50
2022/11/22 09:20:09;;;;;;;7.93;1.77;;;8.10;99.90;;;;;;5053532;28;20055;-53
2022/11/22 09:22:34;;;;;;;12.93;1.97;;;8.20;99.90;;;;;;5062857;28;20031;-53
2022/11/22 09:25:00;;;;;;;10.27;2.00;;;8.60;99.90;;;;;;5064359;28;20100;-52
2022/11/22 09:27:26;;;;;;;9.27;1.70;;;9.00;99.90;;;;;;5053551;28;20051;-54
2022/11/22 09:29:52;;;;;;;7.20;2.07;;;9.50;99.90;;;;;;5049685;28;20028;-53
2022/11/22 09:32:18;;;;;;;12.20;2.00;;;9.80;99.90;;;;;;5050041;28;20099;-51
2022/11/22 09:34:44;;;;;;;22.25;11.00;;;10.00;99.90;;;;;;5048777;28;20484;-52
2022/11/22 09:37:10;;;;;;;10.48;2.25;;;10.40;99.90;;;;;;5049661;28;20100;-53
2022/11/22 09:39:35;;;;;;;8.63;1.63;;;10.80;99.90;;;;;;5049572;28;20430;-52
2022/11/22 09:42:20;;;;;;;8.38;2.20;;;10.60;99.90;;;;;;5050198;28;20029;-53
2022/11/22 09:45:00;;;;;;;9.77;1.70;;;10.70;99.90;;;;;;5049519;28;20033;-53
2022/11/22 09:47:54;;;;;;;10.93;1.77;;;10.70;99.90;;;;;;5049430;28;20033;-53
2022/11/22 09:50:51;;;;;;;9.05;1.58;;;10.50;99.90;;;;;;5048907;28;20033;-54
2022/11/22 09:53:28;;;;;;;6.32;1.88;;;10.50;99.90;;;;;;5069145;28;20029;-54
2022/11/22 09:55:58;;;;;;;8.82;1.75;;;10.90;99.90;;;;;;5069488;28;20473;-55
2022/11/22 09:58:29;;;;;;;10.50;1.85;;;11.30;99.90;;;;;;5068021;28;20376;-53
2022/11/22 10:01:03;;;;;;;7.28;1.75;;;11.60;99.90;;;;;;5069364;28;20024;-54
2022/11/22 10:03:52;;;;;;;5.43;1.38;;;11.60;99.90;;;;;;5068995;28;20366;-53
2022/11/22 10:06:33;;;;;;;9.23;1.77;;;11.70;99.90;;;;;;5068839;28;20029;-54
2022/11/22 10:09:02;;;;;;;6.13;1.65;;;11.40;99.90;;;;;;5069418;28;20040;-53
2022/11/22 10:11:43;;;;;;;12.27;1.58;;;11.50;99.90;;;;;;5068841;28;20536;-52
2022/11/22 10:14:46;;;;;;;9.35;1.75;;;11.60;99.90;;;;;;5069767;28;20032;-56
2022/11/22 10:17:49;;;;;;;7.90;1.67;;;11.40;99.90;;;;;;5068791;28;20445;-54
2022/11/22 10:20:34;;;;;;;9.00;1.60;;;11.20;99.90;;;;;;5047074;22;20313;-54
2022/11/22 10:23:01;;;;;;;9.57;1.95;;;11.10;99.90;;;;;;5029364;28;20048;-53
2022/11/22 10:25:44;;;;;;;10.02;1.45;;;11.00;99.90;;;;;;5032615;28;20032;-50
2022/11/22 10:28:28;;;;;;;5.90;1.17;;;11.50;99.90;;;;;;5048896;28;20036;-53
2022/11/22 10:31:04;;;;;;;7.13;1.33;;;11.40;99.90;;;;;;5048887;28;20040;-55
2022/11/22 10:33:38;;;;;;;9.60;1.52;;;11.50;99.90;;;;;;5048983;28;20051;-54
2022/11/22 10:36:25;;;;;;;12.10;1.52;;;11.60;99.90;;;;;;5048257;28;20075;-55
2022/11/22 10:39:06;;;;;;;8.05;1.77;;;11.80;99.80;;;;;;5048827;28;20021;-53
2022/11/22 10:41:46;;;;;;;5.13;1.20;;;12.20;98.90;;;;;;5048602;28;20255;-54
2022/11/22 10:44:33;;;;;;;6.78;1.30;;;12.10;98.50;;;;;;5048949;28;20064;-55
2022/11/22 10:47:07;;;;;;;4.68;1.00;;;12.10;98.50;;;;;;5048571;28;20457;-54
2022/11/22 10:50:05;;;;;;;10.07;1.85;;;11.90;98.70;;;;;;5047456;28;20040;-53
2022/11/22 10:52:45;;;;;;;7.00;1.40;;;11.70;98.90;;;;;;5048976;28;20204;-55
2022/11/22 10:55:40;;;;;;;6.68;1.60;;;11.80;99.20;;;;;;5049033;28;20025;-54
2022/11/22 10:58:30;;;;;;;5.10;1.30;;;11.50;99.30;;;;;;5028133;28;20056;-55
2022/11/22 11:01:13;;;;;;;9.15;1.35;;;10.90;99.90;;;;;;5048767;28;20029;-54
2022/11/22 11:03:42;;;;;;;8.63;1.40;;;10.70;99.90;;;;;;5048558;28;20474;-53
2022/11/22 11:06:34;;;;;;;6.20;1.08;;;10.60;99.90;;;;;;5048289;28;20139;-55
2022/11/22 11:09:11;;;;;;;7.45;1.10;;;10.50;99.90;;;;;;5048472;28;20037;-54
2022/11/22 11:11:40;;;;;;;5.47;1.10;;;10.60;99.90;;;;;;5048760;28;20032;-54
2022/11/22 11:14:31;;;;;;;6.37;1.10;;;10.80;99.90;;;;;;5048672;28;20051;-54
2022/11/22 11:16:58;;;;;;;14.80;7.57;;;10.90;99.90;;;;;;5047860;28;20079;-53
2022/11/22 11:19:28;;;;;;;7.90;1.40;;;10.80;99.90;;;;;;5047015;28;20397;-53
2022/11/22 11:22:01;;;;;;;4.88;1.63;;;11.00;99.90;;;;;;5048676;28;20127;-52
2022/11/22 11:24:30;;;;;;;5.70;1.45;;;10.80;99.90;;;;;;5051533;28;20029;-53
2022/11/22 11:26:58;;;;;;;3.90;0.90;;;10.60;99.90;;;;;;5036891;28;20163;-53
2022/11/22 11:29:30;;;;;;;5.68;1.25;;;10.50;99.90;;;;;;5031922;28;20514;-53
2022/11/22 11:32:18;;;;;;;5.87;1.50;;;10.40;99.90;;;;;;5032503;28;20117;-52
2022/11/22 11:34:57;;;;;;;5.63;1.08;;;10.40;99.90;;;;;;5031358;28;20063;-54
2022/11/22 11:37:37;;;;;;;3.97;1.40;;;10.50;99.90;;;;;;5032432;28;20033;-54
2022/11/22 11:40:05;;;;;;;4.73;0.80;;;10.80;99.90;;;;;;5031986;28;20029;-53
2022/11/22 11:42:33;;;;;;;6.23;1.17;;;10.90;99.90;;;;;;5032242;28;20470;-54
2022/11/22 11:45:24;;;;;;;6.07;1.83;;;10.80;99.90;;;;;;5031983;28;20125;-55
2022/11/22 11:47:50;;;;;;;5.50;1.23;;;10.20;99.90;;;;;;5031548;28;20391;-54
2022/11/22 11:50:25;;;;;;;3.13;0.90;;;9.90;99.90;;;;;;5030966;28;20037;-52
2022/11/22 11:52:55;;;;;;;5.87;1.70;;;9.60;99.90;;;;;;5032146;28;20048;-53
2022/11/22 11:55:21;;;;;;;5.73;1.60;;;9.60;99.90;;;;;;5031903;28;20486;-53
2022/11/22 11:57:50;;;;;;;6.67;1.20;;;9.60;99.90;;;;;;5031611;28;20039;-54
2022/11/22 12:00:24;;;;;;;6.22;1.40;;;9.60;99.90;;;;;;5031758;28;20132;-54
2022/11/22 12:02:57;;;;;;;5.53;1.10;;;9.60;99.90;;;;;;5029910;28;20083;-53
2022/11/22 12:05:31;;;;;;;2.63;0.77;;;9.60;99.90;;;;;;5031306;28;20442;-53
2022/11/22 12:07:58;;;;;;;4.97;1.10;;;9.50;99.90;;;;;;5031737;28;20470;-55
2022/11/22 12:10:37;;;;;;;3.37;0.87;;;9.40;99.90;;;;;;5031505;28;20250;-51
2022/11/22 12:13:26;;;;;;;4.20;1.15;;;9.30;99.90;;;;;;5031796;28;20044;-54
2022/11/22 12:15:57;;;;;;;4.20;1.23;;;9.30;99.90;;;;;;5032008;28;20414;-54
2022/11/22 12:18:47;;;;;;;6.53;1.93;;;9.20;99.90;;;;;;5031098;28;20385;-53
2022/11/22 12:21:34;;;;;;;2.93;0.80;;;9.20;99.90;;;;;;5030958;28;20091;-53
2022/11/22 12:24:22;;;;;;;5.53;1.00;;;9.30;99.90;;;;;;5031671;28;20164;-53
2022/11/22 12:26:48;;;;;;;4.90;0.80;;;9.20;99.90;;;;;;5031221;28;20041;-55
2022/11/22 12:29:15;;;;;;;4.33;1.20;;;9.20;99.90;;;;;;5029627;28;20077;-54
2022/11/22 12:31:59;;;;;;;2.70;0.80;;;9.20;99.90;;;;;;5031769;28;20641;-52
2022/11/22 12:34:33;;;;;;;3.57;0.80;;;9.20;99.90;;;;;;5029855;28;20129;-51
2022/11/22 12:37:03;;;;;;;4.87;1.00;;;9.10;99.90;;;;;;5031253;28;20033;-53
2022/11/22 12:39:30;;;;;;;6.27;1.00;;;9.20;99.90;;;;;;5030988;28;20143;-54
2022/11/22 12:42:08;;;;;;;4.83;1.50;;;9.20;99.90;;;;;;5031829;28;20133;-56
2022/11/22 12:44:38;;;;;;;4.60;1.27;;;9.20;99.90;;;;;;5031286;28;20033;-53
2022/11/22 12:47:12;;;;;;;6.37;1.47;;;9.20;99.90;;;;;;5031029;28;20034;-51
2022/11/22 12:49:44;;;;;;;5.70;1.00;;;9.20;99.90;;;;;;5028609;28;20025;-53
2022/11/22 12:52:24;;;;;;;1.97;0.83;;;9.30;99.90;;;;;;5031638;28;20068;-55
2022/11/22 12:55:16;;;;;;;3.90;0.97;;;9.30;99.90;;;;;;5030820;28;20029;-53
2022/11/22 12:57:51;;;;;;;1.73;0.70;;;9.30;99.90;;;;;;5030957;28;20160;-46
2022/11/22 13:00:23;;;;;;;3.17;0.87;;;9.30;99.90;;;;;;5030753;28;20075;-47
2022/11/22 13:03:02;;;;;;;2.83;0.53;;;9.30;99.90;;;;;;5030801;28;20042;-51
2022/11/22 13:05:35;;;;;;;2.83;0.80;;;9.20;99.90;;;;;;5030360;28;20101;-50
2022/11/22 13:08:22;;;;;;;5.03;1.13;;;9.20;99.90;;;;;;5030968;28;20052;-47
2022/11/22 13:10:57;;;;;;;3.13;0.80;;;9.20;99.90;;;;;;5030712;28;20433;-47
2022/11/22 13:13:31;;;;;;;3.63;0.70;;;9.20;99.90;;;;;;5030926;28;20076;-52
2022/11/22 13:16:00;;;;;;;2.33;0.60;;;9.20;99.90;;;;;;5030481;28;20795;-54
2022/11/22 13:18:30;;;;;;;30.38;15.93;;;9.30;99.90;;;;;;5030138;28;20044;-53